sensor_id;sensor_type;location;lat;lon;timestamp;pressure;altitude;pressure_sealevel;temperature;humidity
8075;BME280;4080;42.676;23.372;2022-07-10T00:00:28;95030.72;;;20.71;100.00
8075;BME280;4080;42.676;23.372;2022-07-10T00:02:56;95034.09;;;20.81;100.00
8075;BME280;4080;42.676;23.372;2022-07-10T00:05:23;95032.81;;;20.87;100.00
8075;BME280;4080;42.676;23.372;2022-07-10T00:07:51;95030.13;;;20.99;100.00
8075;BME280;4080;42.676;23.372;2022-07-10T00:10:18;95027.22;;;21.04;100.00
8075;BME280;4080;42.676;23.372;2022-07-10T00:12:47;95016.50;;;21.04;100.00
8075;BME280;4080;42.676;23.372;2022-07-10T00:15:15;94922.44;;;20.39;100.00
8075;BME280;4080;42.676;23.372;2022-07-10T00:17:42;95016.28;;;20.97;100.00
8075;BME280;4080;42.676;23.372;2022-07-10T00:20:10;95016.59;;;20.95;100.00
8075;BME280;4080;42.676;23.372;2022-07-10T00:22:38;95017.38;;;20.96;100.00
8075;BME280;4080;42.676;23.372;2022-07-10T00:25:06;95014.09;;;20.66;100.00
8075;BME280;4080;42.676;23.372;2022-07-10T00:27:33;95014.44;;;20.43;100.00
8075;BME280;4080;42.676;23.372;2022-07-10T00:30:03;95009.88;;;20.44;100.00
8075;BME280;4080;42.676;23.372;2022-07-10T00:32:30;95003.34;;;20.54;100.00
8075;BME280;4080;42.676;23.372;2022-07-10T00:34:57;95011.06;;;20.67;100.00
8075;BME280;4080;42.676;23.372;2022-07-10T00:37:23;95007.19;;;20.77;100.00
8075;BME280;4080;42.676;23.372;2022-07-10T00:39:50;95009.56;;;20.91;100.00
8075;BME280;4080;42.676;23.372;2022-07-10T00:42:17;94993.38;;;20.87;100.00
8075;BME280;4080;42.676;23.372;2022-07-10T00:44:44;95004.09;;;20.99;100.00
8075;BME280;4080;42.676;23.372;2022-07-10T00:47:12;94964.16;;;20.73;100.00
8075;BME280;4080;42.676;23.372;2022-07-10T00:49:43;94976.50;;;20.87;100.00
8075;BME280;4080;42.676;23.372;2022-07-10T00:52:12;94987.91;;;20.96;100.00
8075;BME280;4080;42.676;23.372;2022-07-10T00:54:42;94999.75;;;21.07;100.00
8075;BME280;4080;42.676;23.372;2022-07-10T00:57:10;94999.22;;;21.14;100.00
8075;BME280;4080;42.676;23.372;2022-07-10T00:59:37;94998.53;;;21.17;100.00
8075;BME280;4080;42.676;23.372;2022-07-10T01:02:04;94990.16;;;21.18;100.00
8075;BME280;4080;42.676;23.372;2022-07-10T01:04:34;94989.81;;;21.20;100.00
8075;BME280;4080;42.676;23.372;2022-07-10T01:07:02;95000.09;;;21.18;100.00
8075;BME280;4080;42.676;23.372;2022-07-10T01:09:29;94996.28;;;21.06;100.00
8075;BME280;4080;42.676;23.372;2022-07-10T01:11:57;94995.16;;;20.95;100.00
8075;BME280;4080;42.676;23.372;2022-07-10T01:14:26;94993.81;;;20.89;100.00
8075;BME280;4080;42.676;23.372;2022-07-10T01:16:53;94996.16;;;20.91;100.00
8075;BME280;4080;42.676;23.372;2022-07-10T01:19:20;94987.09;;;20.83;100.00
8075;BME280;4080;42.676;23.372;2022-07-10T01:21:49;94971.31;;;20.69;100.00
8075;BME280;4080;42.676;23.372;2022-07-10T01:24:15;94982.88;;;20.82;100.00
8075;BME280;4080;42.676;23.372;2022-07-10T01:26:42;94985.84;;;20.81;100.00
8075;BME280;4080;42.676;23.372;2022-07-10T01:29:10;94946.84;;;20.59;100.00
8075;BME280;4080;42.676;23.372;2022-07-10T01:31:38;94981.41;;;20.85;100.00
8075;BME280;4080;42.676;23.372;2022-07-10T01:34:08;94964.78;;;20.46;100.00
8075;BME280;4080;42.676;23.372;2022-07-10T01:36:36;94965.16;;;20.36;100.00
8075;BME280;4080;42.676;23.372;2022-07-10T01:39:05;94966.50;;;20.30;100.00
8075;BME280;4080;42.676;23.372;2022-07-10T01:41:32;94964.28;;;20.32;100.00
8075;BME280;4080;42.676;23.372;2022-07-10T01:43:59;94948.53;;;20.30;100.00
8075;BME280;4080;42.676;23.372;2022-07-10T01:46:26;94962.66;;;20.19;100.00
8075;BME280;4080;42.676;23.372;2022-07-10T01:48:53;94953.47;;;20.07;100.00
8075;BME280;4080;42.676;23.372;2022-07-10T01:51:20;94892.78;;;19.58;100.00
8075;BME280;4080;42.676;23.372;2022-07-10T01:53:48;94943.03;;;19.73;100.00
8075;BME280;4080;42.676;23.372;2022-07-10T01:56:16;94948.41;;;19.73;100.00
8075;BME280;4080;42.676;23.372;2022-07-10T01:58:43;94948.53;;;19.76;100.00
8075;BME280;4080;42.676;23.372;2022-07-10T02:01:11;94955.56;;;19.81;100.00
8075;BME280;4080;42.676;23.372;2022-07-10T02:03:38;94957.09;;;19.91;100.00
8075;BME280;4080;42.676;23.372;2022-07-10T02:06:22;94948.84;;;19.75;100.00
8075;BME280;4080;42.676;23.372;2022-07-10T02:08:49;94952.19;;;19.72;100.00
8075;BME280;4080;42.676;23.372;2022-07-10T02:11:17;94949.19;;;19.73;100.00
8075;BME280;4080;42.676;23.372;2022-07-10T02:13:44;94948.41;;;19.73;100.00
8075;BME280;4080;42.676;23.372;2022-07-10T02:16:11;94943.28;;;19.80;100.00
8075;BME280;4080;42.676;23.372;2022-07-10T02:18:38;94951.56;;;19.87;100.00
8075;BME280;4080;42.676;23.372;2022-07-10T02:21:05;94945.25;;;19.92;100.00
8075;BME280;4080;42.676;23.372;2022-07-10T02:23:33;94944.53;;;20.03;100.00
8075;BME280;4080;42.676;23.372;2022-07-10T02:26:00;94941.31;;;20.10;100.00
8075;BME280;4080;42.676;23.372;2022-07-10T02:28:28;94943.53;;;20.08;100.00
8075;BME280;4080;42.676;23.372;2022-07-10T02:30:55;94945.44;;;20.07;100.00
8075;BME280;4080;42.676;23.372;2022-07-10T02:33:22;94934.03;;;19.98;100.00
8075;BME280;4080;42.676;23.372;2022-07-10T02:35:49;94938.59;;;19.98;100.00
8075;BME280;4080;42.676;23.372;2022-07-10T02:38:16;94943.09;;;20.06;100.00
8075;BME280;4080;42.676;23.372;2022-07-10T02:40:43;94943.41;;;20.04;100.00
8075;BME280;4080;42.676;23.372;2022-07-10T02:43:10;94946.56;;;19.85;100.00
8075;BME280;4080;42.676;23.372;2022-07-10T02:45:38;94944.88;;;19.81;100.00
8075;BME280;4080;42.676;23.372;2022-07-10T02:48:05;94949.09;;;19.82;100.00
8075;BME280;4080;42.676;23.372;2022-07-10T02:50:32;94949.84;;;19.91;100.00
8075;BME280;4080;42.676;23.372;2022-07-10T02:52:59;94948.41;;;19.94;100.00
8075;BME280;4080;42.676;23.372;2022-07-10T02:55:26;94954.66;;;19.98;100.00
8075;BME280;4080;42.676;23.372;2022-07-10T02:57:53;94957.78;;;20.00;100.00
8075;BME280;4080;42.676;23.372;2022-07-10T03:00:19;94953.22;;;20.00;100.00
8075;BME280;4080;42.676;23.372;2022-07-10T03:02:48;94957.00;;;19.99;100.00
8075;BME280;4080;42.676;23.372;2022-07-10T03:05:15;94960.72;;;19.86;100.00
8075;BME280;4080;42.676;23.372;2022-07-10T03:07:41;94961.19;;;19.88;100.00
8075;BME280;4080;42.676;23.372;2022-07-10T03:10:09;94963.78;;;19.76;100.00
8075;BME280;4080;42.676;23.372;2022-07-10T03:12:36;94962.63;;;19.65;100.00
8075;BME280;4080;42.676;23.372;2022-07-10T03:15:04;94964.66;;;19.68;100.00
8075;BME280;4080;42.676;23.372;2022-07-10T03:17:31;94971.47;;;19.57;100.00
8075;BME280;4080;42.676;23.372;2022-07-10T03:19:59;94976.81;;;19.57;100.00
8075;BME280;4080;42.676;23.372;2022-07-10T03:22:26;94972.56;;;19.64;100.00
8075;BME280;4080;42.676;23.372;2022-07-10T03:24:53;94983.56;;;19.83;100.00
8075;BME280;4080;42.676;23.372;2022-07-10T03:27:20;94978.75;;;19.98;100.00
8075;BME280;4080;42.676;23.372;2022-07-10T03:29:47;94980.91;;;20.04;100.00
8075;BME280;4080;42.676;23.372;2022-07-10T03:32:14;94972.78;;;20.13;100.00
8075;BME280;4080;42.676;23.372;2022-07-10T03:34:40;94974.34;;;20.14;100.00
8075;BME280;4080;42.676;23.372;2022-07-10T03:37:09;94976.75;;;20.28;100.00
8075;BME280;4080;42.676;23.372;2022-07-10T03:39:35;94972.75;;;20.34;100.00
8075;BME280;4080;42.676;23.372;2022-07-10T03:42:03;94975.09;;;20.35;100.00
8075;BME280;4080;42.676;23.372;2022-07-10T03:44:30;94973.22;;;20.36;100.00
8075;BME280;4080;42.676;23.372;2022-07-10T03:46:56;94972.25;;;20.40;100.00
8075;BME280;4080;42.676;23.372;2022-07-10T03:49:23;94980.13;;;20.37;100.00
8075;BME280;4080;42.676;23.372;2022-07-10T03:51:50;94967.16;;;20.27;100.00
8075;BME280;4080;42.676;23.372;2022-07-10T03:54:18;94964.94;;;20.29;100.00
8075;BME280;4080;42.676;23.372;2022-07-10T03:56:45;94969.41;;;20.37;100.00
8075;BME280;4080;42.676;23.372;2022-07-10T03:59:31;94970.03;;;20.42;100.00
8075;BME280;4080;42.676;23.372;2022-07-10T04:01:58;94962.38;;;20.65;100.00
8075;BME280;4080;42.676;23.372;2022-07-10T04:04:25;94970.13;;;20.91;100.00
8075;BME280;4080;42.676;23.372;2022-07-10T04:06:53;94951.03;;;21.05;100.00
8075;BME280;4080;42.676;23.372;2022-07-10T04:09:21;94969.84;;;21.29;100.00
8075;BME280;4080;42.676;23.372;2022-07-10T04:11:48;94960.00;;;21.46;100.00
8075;BME280;4080;42.676;23.372;2022-07-10T04:14:14;94963.88;;;21.60;100.00
8075;BME280;4080;42.676;23.372;2022-07-10T04:16:41;94953.25;;;21.64;100.00
8075;BME280;4080;42.676;23.372;2022-07-10T04:19:08;94963.69;;;21.93;100.00
8075;BME280;4080;42.676;23.372;2022-07-10T04:21:35;94947.03;;;21.88;100.00
8075;BME280;4080;42.676;23.372;2022-07-10T04:24:02;94956.16;;;22.11;100.00
8075;BME280;4080;42.676;23.372;2022-07-10T04:26:30;94957.13;;;22.19;100.00
8075;BME280;4080;42.676;23.372;2022-07-10T04:28:57;94956.72;;;22.33;100.00
8075;BME280;4080;42.676;23.372;2022-07-10T04:31:24;94957.91;;;22.47;100.00
8075;BME280;4080;42.676;23.372;2022-07-10T04:33:51;94963.47;;;22.54;100.00
8075;BME280;4080;42.676;23.372;2022-07-10T04:36:17;94964.41;;;22.62;100.00
8075;BME280;4080;42.676;23.372;2022-07-10T04:38:44;94967.66;;;22.68;100.00
8075;BME280;4080;42.676;23.372;2022-07-10T04:41:11;94965.50;;;22.73;100.00
8075;BME280;4080;42.676;23.372;2022-07-10T04:43:39;94966.28;;;22.74;100.00
8075;BME280;4080;42.676;23.372;2022-07-10T04:46:06;94959.81;;;22.62;100.00
8075;BME280;4080;42.676;23.372;2022-07-10T04:48:33;94962.09;;;22.60;100.00
8075;BME280;4080;42.676;23.372;2022-07-10T04:51:00;94967.53;;;22.64;100.00
8075;BME280;4080;42.676;23.372;2022-07-10T04:53:26;94964.06;;;22.63;100.00
8075;BME280;4080;42.676;23.372;2022-07-10T04:55:53;94963.84;;;22.69;100.00
8075;BME280;4080;42.676;23.372;2022-07-10T04:58:20;94972.09;;;22.76;100.00
8075;BME280;4080;42.676;23.372;2022-07-10T05:00:48;94965.41;;;22.70;100.00
8075;BME280;4080;42.676;23.372;2022-07-10T05:03:15;94962.28;;;22.68;100.00
8075;BME280;4080;42.676;23.372;2022-07-10T05:05:42;94954.31;;;22.71;100.00
8075;BME280;4080;42.676;23.372;2022-07-10T05:08:10;94962.28;;;22.68;100.00
8075;BME280;4080;42.676;23.372;2022-07-10T05:10:36;94960.03;;;22.70;100.00
8075;BME280;4080;42.676;23.372;2022-07-10T05:13:05;94929.56;;;22.50;100.00
8075;BME280;4080;42.676;23.372;2022-07-10T05:15:32;94961.34;;;22.76;100.00
8075;BME280;4080;42.676;23.372;2022-07-10T05:18:00;94957.50;;;22.77;100.00
8075;BME280;4080;42.676;23.372;2022-07-10T05:20:27;94959.72;;;22.87;100.00
8075;BME280;4080;42.676;23.372;2022-07-10T05:22:54;94960.22;;;22.92;100.00
8075;BME280;4080;42.676;23.372;2022-07-10T05:25:21;94960.56;;;22.91;100.00
